Time;durP1;ratioP1;P1;durP2;ratioP2;P2;SDS_P1;SDS_P2;PMS_P1;PMS_P2;Temp;Humidity;BMP_temperature;BMP_pressure;BME280_temperature;BME280_humidity;BME280_pressure;Samples;Min_cycle;Max_cycle;Signal;HPM_P1;HPM_P2
2021/11/15 00:00:33;;;;;;;16.90;12.57;;;9.40;99.90;;;;;;5073207;28;20381;-56
2021/11/15 00:02:59;;;;;;;21.42;14.05;;;9.30;99.90;;;;;;5090594;28;20032;-55
2021/11/15 00:05:25;;;;;;;18.08;13.65;;;9.30;99.90;;;;;;5091736;28;20423;-56
2021/11/15 00:07:51;;;;;;;18.77;13.98;;;9.40;99.90;;;;;;5090744;28;20103;-57
2021/11/15 00:10:17;;;;;;;16.80;12.80;;;9.30;99.90;;;;;;5091363;28;20040;-56
2021/11/15 00:12:44;;;;;;;19.20;13.77;;;9.40;99.90;;;;;;5090796;28;20109;-56
2021/11/15 00:15:11;;;;;;;21.38;14.27;;;9.40;99.90;;;;;;5090787;28;20032;-56
2021/11/15 00:17:37;;;;;;;19.48;14.13;;;9.30;99.90;;;;;;5072638;28;20076;-69
2021/11/15 00:20:05;;;;;;;19.25;14.15;;;9.30;99.90;;;;;;5091040;28;20481;-56
2021/11/15 00:22:30;;;;;;;21.27;15.18;;;9.30;99.90;;;;;;5090885;28;20107;-56
2021/11/15 00:24:57;;;;;;;19.88;14.98;;;9.30;99.90;;;;;;5072441;28;20124;-56
2021/11/15 00:27:22;;;;;;;17.92;14.20;;;9.30;99.90;;;;;;5090844;28;20035;-56
2021/11/15 00:29:48;;;;;;;20.80;14.82;;;9.20;99.90;;;;;;5094038;28;20450;-56
2021/11/15 00:32:14;;;;;;;23.75;15.43;;;9.20;99.90;;;;;;5095144;28;20024;-57
2021/11/15 00:34:39;;;;;;;22.23;16.02;;;9.20;99.90;;;;;;5075803;28;20077;-55
2021/11/15 00:37:05;;;;;;;21.00;15.77;;;9.30;99.90;;;;;;5094875;28;20029;-56
2021/11/15 00:39:31;;;;;;;18.88;14.75;;;9.30;99.90;;;;;;5094444;28;20034;-56
2021/11/15 00:41:58;;;;;;;21.55;15.57;;;9.30;99.90;;;;;;5075919;28;20064;-56
2021/11/15 00:44:24;;;;;;;19.48;15.35;;;9.20;99.90;;;;;;5094217;28;20111;-56
2021/11/15 00:46:50;;;;;;;20.30;13.77;;;9.20;99.90;;;;;;5093920;28;20040;-56
2021/11/15 00:49:15;;;;;;;22.55;15.85;;;9.20;99.90;;;;;;5076436;28;20124;-55
2021/11/15 00:51:41;;;;;;;19.80;14.50;;;9.10;99.90;;;;;;5094186;28;20024;-56
2021/11/15 00:54:07;;;;;;;26.38;16.95;;;9.20;99.90;;;;;;5076359;28;20427;-56
2021/11/15 00:56:32;;;;;;;23.13;14.70;;;9.20;99.90;;;;;;5094205;28;20025;-56
2021/11/15 00:58:58;;;;;;;22.75;16.13;;;9.20;99.90;;;;;;5093781;28;20031;-56
2021/11/15 01:01:24;;;;;;;20.02;14.55;;;9.20;99.90;;;;;;5076160;28;20158;-56
2021/11/15 01:03:50;;;;;;;17.92;13.85;;;9.20;99.90;;;;;;5093310;28;20126;-55
2021/11/15 01:06:16;;;;;;;20.95;14.15;;;9.20;99.90;;;;;;5094038;28;20115;-57
2021/11/15 01:08:42;;;;;;;20.73;14.70;;;9.30;99.90;;;;;;5093443;28;20120;-56
2021/11/15 01:11:08;;;;;;;20.27;14.98;;;9.20;99.90;;;;;;5094007;28;20024;-57
2021/11/15 01:13:34;;;;;;;21.52;15.07;;;9.20;99.90;;;;;;5093684;28;20382;-56
2021/11/15 01:16:00;;;;;;;23.42;14.30;;;9.20;99.90;;;;;;5093336;28;20038;-57
2021/11/15 01:18:25;;;;;;;18.50;14.05;;;9.20;99.90;;;;;;5093586;28;20580;-57
2021/11/15 01:20:51;;;;;;;20.63;14.57;;;9.20;99.90;;;;;;5093555;28;20028;-57
2021/11/15 01:23:17;;;;;;;20.92;15.50;;;9.20;99.90;;;;;;5094012;28;20357;-56
2021/11/15 01:25:44;;;;;;;19.10;13.98;;;9.20;99.90;;;;;;5093008;28;20032;-56
2021/11/15 01:28:10;;;;;;;19.55;14.00;;;9.20;99.90;;;;;;5093898;28;20020;-56
2021/11/15 01:30:36;;;;;;;18.92;14.15;;;9.20;99.90;;;;;;5093792;28;20056;-56
2021/11/15 01:33:02;;;;;;;19.80;14.98;;;9.30;99.90;;;;;;5093289;28;20068;-56
2021/11/15 01:35:28;;;;;;;21.98;15.68;;;9.30;99.90;;;;;;5093796;28;20032;-56
2021/11/15 01:37:55;;;;;;;20.23;14.75;;;9.30;99.90;;;;;;5093273;28;20089;-56
2021/11/15 01:40:24;;;;;;;23.20;14.77;;;9.30;99.90;;;;;;5093193;28;20031;-55
2021/11/15 01:42:50;;;;;;;22.00;14.63;;;9.30;99.90;;;;;;5092801;28;20028;-57
2021/11/15 01:45:23;;;;;;;19.25;14.23;;;9.30;99.90;;;;;;5093448;28;20020;-55
2021/11/15 01:47:51;;;;;;;21.38;14.75;;;9.20;99.90;;;;;;5093043;28;20458;-57
2021/11/15 01:50:17;;;;;;;19.15;13.77;;;9.20;99.90;;;;;;5093306;28;20453;-55
2021/11/15 01:52:44;;;;;;;22.63;15.15;;;9.20;99.90;;;;;;5092708;28;20518;-65
2021/11/15 01:55:10;;;;;;;22.45;14.95;;;9.20;99.90;;;;;;5093420;28;20028;-56
2021/11/15 01:57:36;;;;;;;20.50;14.25;;;9.20;99.90;;;;;;5093294;28;20474;-56
2021/11/15 02:00:07;;;;;;;23.60;14.40;;;9.20;99.90;;;;;;5074427;28;20131;-56
2021/11/15 02:02:33;;;;;;;20.42;15.55;;;9.20;99.90;;;;;;5093483;28;20046;-56
2021/11/15 02:04:58;;;;;;;19.20;13.45;;;9.20;99.90;;;;;;5092494;28;20036;-56
2021/11/15 02:07:25;;;;;;;20.35;13.85;;;9.20;99.90;;;;;;5074832;28;20024;-56
2021/11/15 02:09:51;;;;;;;22.75;13.95;;;9.20;99.90;;;;;;5092471;28;20024;-56
2021/11/15 02:12:17;;;;;;;22.27;14.05;;;9.20;99.90;;;;;;5074762;28;20348;-56
2021/11/15 02:14:43;;;;;;;22.65;13.65;;;9.30;99.90;;;;;;5092997;28;20024;-56
2021/11/15 02:17:08;;;;;;;20.38;13.00;;;9.30;99.90;;;;;;5092912;28;20055;-56
2021/11/15 02:19:34;;;;;;;18.98;13.13;;;9.20;99.90;;;;;;5093103;28;20107;-56
2021/11/15 02:22:00;;;;;;;19.80;13.88;;;9.20;99.90;;;;;;5092169;28;20031;-57
2021/11/15 02:24:26;;;;;;;21.08;14.23;;;9.20;99.90;;;;;;5092424;28;20024;-55
2021/11/15 02:26:53;;;;;;;22.92;13.38;;;9.20;99.90;;;;;;5073954;28;20078;-57
2021/11/15 02:29:19;;;;;;;21.85;14.23;;;9.10;99.90;;;;;;5093098;28;20103;-57
2021/11/15 02:31:45;;;;;;;22.55;14.65;;;9.20;99.90;;;;;;5092388;28;20119;-68
2021/11/15 02:34:11;;;;;;;19.90;13.50;;;9.10;99.90;;;;;;5092503;28;20078;-57
2021/11/15 02:36:40;;;;;;;20.23;14.43;;;9.20;99.90;;;;;;5092280;28;20077;-56
2021/11/15 02:39:07;;;;;;;20.30;13.85;;;9.10;99.90;;;;;;5073584;28;20035;-56
2021/11/15 02:41:32;;;;;;;19.15;13.20;;;9.10;99.90;;;;;;5074600;28;20039;-55
2021/11/15 02:44:01;;;;;;;21.00;13.70;;;9.10;99.90;;;;;;5091343;28;20028;-56
2021/11/15 02:46:28;;;;;;;22.55;14.25;;;9.20;99.90;;;;;;5092308;28;20433;-56
2021/11/15 02:48:54;;;;;;;21.65;12.98;;;9.10;99.90;;;;;;5073555;28;20039;-56
2021/11/15 02:51:20;;;;;;;24.35;14.57;;;9.10;99.90;;;;;;5073476;28;20389;-56
2021/11/15 02:53:46;;;;;;;19.20;13.30;;;9.20;99.90;;;;;;5091766;28;20028;-69
2021/11/15 02:56:12;;;;;;;27.75;14.02;;;9.20;99.90;;;;;;5092218;28;20088;-57
2021/11/15 02:58:39;;;;;;;19.88;13.73;;;9.10;99.90;;;;;;5091786;28;20024;-56
2021/11/15 03:01:12;;;;;;;24.83;13.63;;;9.20;99.90;;;;;;5091472;28;20452;-56
2021/11/15 03:03:39;;;;;;;18.98;13.02;;;9.20;99.90;;;;;;5092117;28;20077;-56
2021/11/15 03:06:05;;;;;;;22.13;14.15;;;9.10;99.90;;;;;;5091182;28;20033;-56
2021/11/15 03:08:30;;;;;;;18.45;12.40;;;9.10;99.90;;;;;;5092194;28;20108;-56
2021/11/15 03:10:59;;;;;;;24.25;14.55;;;9.20;99.90;;;;;;5091383;28;20028;-56
2021/11/15 03:13:30;;;;;;;20.08;13.68;;;9.20;99.90;;;;;;5091717;28;20054;-57
2021/11/15 03:15:57;;;;;;;19.55;13.57;;;9.10;99.90;;;;;;5091164;28;20060;-57
2021/11/15 03:18:27;;;;;;;20.60;13.70;;;9.20;99.90;;;;;;5091573;28;20044;-56
2021/11/15 03:20:59;;;;;;;21.23;14.32;;;9.10;99.90;;;;;;5091209;28;20036;-57
2021/11/15 03:23:28;;;;;;;21.42;12.80;;;9.10;99.90;;;;;;5073523;28;20024;-56
2021/11/15 03:25:54;;;;;;;22.55;14.30;;;9.10;99.90;;;;;;5091069;28;20032;-57
2021/11/15 03:28:23;;;;;;;21.45;13.80;;;9.10;99.90;;;;;;5091814;28;20081;-56
2021/11/15 03:30:53;;;;;;;18.20;12.93;;;9.20;99.90;;;;;;5091200;28;20031;-69
2021/11/15 03:33:19;;;;;;;21.30;15.07;;;9.20;99.90;;;;;;5073715;28;20035;-55
2021/11/15 03:35:45;;;;;;;20.58;13.35;;;9.20;99.90;;;;;;5091694;28;20035;-56
2021/11/15 03:38:11;;;;;;;24.42;13.75;;;9.20;99.90;;;;;;5091275;28;20466;-56
2021/11/15 03:40:37;;;;;;;21.60;14.20;;;9.10;99.90;;;;;;5091666;28;20032;-57
2021/11/15 03:43:05;;;;;;;24.40;15.02;;;9.10;99.90;;;;;;5090958;28;20036;-55
2021/11/15 03:45:33;;;;;;;22.42;14.20;;;9.20;99.90;;;;;;5091590;28;20032;-56
2021/11/15 03:47:59;;;;;;;21.73;14.52;;;9.10;99.90;;;;;;5090981;28;20043;-58
2021/11/15 03:50:27;;;;;;;22.50;14.73;;;9.20;99.90;;;;;;5091291;28;20039;-55
2021/11/15 03:52:54;;;;;;;22.80;14.73;;;9.10;99.90;;;;;;5090990;28;20032;-56
2021/11/15 03:55:22;;;;;;;24.20;15.07;;;9.20;99.90;;;;;;5073391;28;20028;-57
2021/11/15 03:57:49;;;;;;;23.13;14.75;;;9.20;99.90;;;;;;5091528;28;20024;-56
2021/11/15 04:00:20;;;;;;;23.05;14.52;;;9.10;99.90;;;;;;5091412;28;20108;-56
2021/11/15 04:02:50;;;;;;;22.45;14.98;;;9.00;99.90;;;;;;5093515;28;20081;-56
2021/11/15 04:05:26;;;;;;;24.42;15.65;;;9.10;99.90;;;;;;5095656;28;20405;-55
2021/11/15 04:07:52;;;;;;;23.33;15.68;;;9.10;99.90;;;;;;5094846;28;20021;-58
2021/11/15 04:10:23;;;;;;;22.33;14.23;;;9.00;99.90;;;;;;5077291;28;20051;-56
2021/11/15 04:12:50;;;;;;;22.83;14.85;;;9.00;99.90;;;;;;5095432;28;20129;-56
2021/11/15 04:15:16;;;;;;;24.23;14.48;;;9.00;99.90;;;;;;5095288;28;20032;-56
2021/11/15 04:17:44;;;;;;;25.92;15.52;;;9.00;99.90;;;;;;5094918;28;20055;-56
2021/11/15 04:20:13;;;;;;;22.75;13.77;;;9.10;99.90;;;;;;5076261;28;20028;-55
2021/11/15 04:22:39;;;;;;;25.65;16.17;;;9.10;99.90;;;;;;5076699;28;20482;-57
2021/11/15 04:25:07;;;;;;;24.65;14.68;;;9.00;99.90;;;;;;5076169;28;20109;-56
2021/11/15 04:27:34;;;;;;;25.88;14.73;;;9.00;99.90;;;;;;5076619;28;20047;-55
2021/11/15 04:30:00;;;;;;;24.25;15.45;;;9.00;99.90;;;;;;5094221;28;20054;-56
2021/11/15 04:32:26;;;;;;;25.60;15.35;;;9.00;99.90;;;;;;5095337;28;20081;-56
2021/11/15 04:34:52;;;;;;;24.05;14.38;;;9.00;99.90;;;;;;5094777;28;20131;-57
2021/11/15 04:37:18;;;;;;;23.58;15.07;;;9.10;99.90;;;;;;5076655;28;20064;-56
2021/11/15 04:39:43;;;;;;;28.58;14.02;;;9.10;99.90;;;;;;5078713;28;20024;-57
2021/11/15 04:42:09;;;;;;;22.98;14.25;;;9.10;99.90;;;;;;5057721;28;20075;-57
2021/11/15 04:44:35;;;;;;;26.48;15.07;;;9.00;99.90;;;;;;5037271;28;20056;-56
2021/11/15 04:47:01;;;;;;;27.75;13.30;;;9.10;99.90;;;;;;5054160;28;20463;-56
2021/11/15 04:49:26;;;;;;;22.25;14.38;;;9.10;99.90;;;;;;5053936;28;20025;-56
2021/11/15 04:51:52;;;;;;;20.20;13.68;;;9.10;99.90;;;;;;5053959;28;20335;-56
2021/11/15 04:54:19;;;;;;;21.48;13.55;;;9.10;99.90;;;;;;5053619;28;20025;-57
2021/11/15 04:56:44;;;;;;;21.48;13.18;;;9.10;99.90;;;;;;5054251;28;20052;-56
2021/11/15 04:59:10;;;;;;;21.70;13.45;;;9.10;99.90;;;;;;5053218;28;20063;-56
2021/11/15 05:01:36;;;;;;;20.08;13.38;;;9.10;99.90;;;;;;5053573;28;20079;-57
2021/11/15 05:04:02;;;;;;;23.48;13.73;;;9.10;99.90;;;;;;5035261;28;20044;-56
2021/11/15 05:06:28;;;;;;;26.00;13.93;;;9.10;99.90;;;;;;5035983;28;20390;-56
2021/11/15 05:08:54;;;;;;;21.15;12.35;;;9.00;99.90;;;;;;5036055;28;20047;-65
2021/11/15 05:11:20;;;;;;;29.05;13.32;;;9.00;99.90;;;;;;5036006;28;20456;-56
2021/11/15 05:13:46;;;;;;;20.05;13.75;;;9.00;99.90;;;;;;5053037;28;20115;-56
2021/11/15 05:16:12;;;;;;;24.52;13.40;;;9.00;99.90;;;;;;5053355;28;20033;-55
2021/11/15 05:18:38;;;;;;;19.13;12.00;;;8.90;99.90;;;;;;5052119;28;20052;-58
2021/11/15 05:21:03;;;;;;;20.60;13.30;;;9.00;99.90;;;;;;5053059;28;20029;-55
2021/11/15 05:23:29;;;;;;;21.95;14.15;;;9.00;99.90;;;;;;5053152;28;20037;-57
2021/11/15 05:25:55;;;;;;;20.65;12.45;;;9.10;99.90;;;;;;5053216;28;20463;-68
2021/11/15 05:28:21;;;;;;;19.75;12.13;;;9.00;99.90;;;;;;5053986;28;20060;-56
2021/11/15 05:30:47;;;;;;;22.55;12.70;;;9.00;99.90;;;;;;5053170;28;20067;-56
2021/11/15 05:33:13;;;;;;;18.60;12.27;;;8.90;99.90;;;;;;5052628;28;20041;-56
2021/11/15 05:35:39;;;;;;;18.20;11.70;;;9.00;99.90;;;;;;5051785;28;20112;-56
2021/11/15 05:38:05;;;;;;;22.05;13.18;;;9.00;99.90;;;;;;5052517;28;20029;-56
2021/11/15 05:40:31;;;;;;;18.70;12.60;;;9.00;99.90;;;;;;5052911;28;20051;-56
2021/11/15 05:42:57;;;;;;;18.88;12.43;;;9.00;99.90;;;;;;5052504;28;20120;-60
2021/11/15 05:45:24;;;;;;;17.10;11.00;;;8.90;99.90;;;;;;5052740;28;20120;-56
2021/11/15 05:47:50;;;;;;;32.00;12.55;;;9.00;99.90;;;;;;5053179;28;20025;-56
2021/11/15 05:50:19;;;;;;;21.52;12.52;;;9.10;99.90;;;;;;5050976;28;20397;-56
2021/11/15 05:52:45;;;;;;;27.15;12.63;;;9.00;99.90;;;;;;5052364;28;20036;-56
2021/11/15 05:55:19;;;;;;;25.80;11.65;;;9.10;99.90;;;;;;5052377;28;20025;-56
2021/11/15 05:57:45;;;;;;;26.25;11.55;;;9.00;99.90;;;;;;5051524;28;20021;-56
2021/11/15 06:00:15;;;;;;;19.85;11.82;;;9.00;99.90;;;;;;5052001;28;20170;-56
2021/11/15 06:02:41;;;;;;;18.17;11.50;;;8.90;99.90;;;;;;5052489;28;20547;-55
2021/11/15 06:05:07;;;;;;;21.00;12.30;;;8.90;99.90;;;;;;5052072;28;20072;-56
2021/11/15 06:07:34;;;;;;;30.08;12.30;;;8.90;99.90;;;;;;5052578;28;20041;-56
2021/11/15 06:10:00;;;;;;;20.23;10.73;;;8.90;99.90;;;;;;5050325;28;20025;-56
2021/11/15 06:12:25;;;;;;;21.33;11.32;;;8.90;99.90;;;;;;5052443;28;20112;-56
2021/11/15 06:14:51;;;;;;;20.63;12.18;;;9.00;99.90;;;;;;5052464;28;20116;-56
2021/11/15 06:17:17;;;;;;;18.23;11.07;;;9.00;99.90;;;;;;5059923;28;20402;-56
2021/11/15 06:19:43;;;;;;;25.55;12.02;;;8.90;99.90;;;;;;5053835;28;20029;-57
2021/11/15 06:22:09;;;;;;;31.92;12.45;;;8.90;99.90;;;;;;5071787;28;20107;-57
2021/11/15 06:24:35;;;;;;;18.92;11.00;;;9.00;99.90;;;;;;5071671;28;20104;-56
2021/11/15 06:27:01;;;;;;;15.82;9.70;;;8.90;99.90;;;;;;5070873;28;20077;-56
2021/11/15 06:29:27;;;;;;;14.13;9.98;;;8.80;99.90;;;;;;5072250;28;20032;-57
2021/11/15 06:31:53;;;;;;;22.73;11.15;;;8.90;99.90;;;;;;5053877;28;20123;-56
2021/11/15 06:34:19;;;;;;;17.05;10.65;;;8.80;99.90;;;;;;5071240;28;20276;-56
2021/11/15 06:36:44;;;;;;;19.38;10.95;;;8.80;99.90;;;;;;5071505;28;20070;-56
2021/11/15 06:39:10;;;;;;;19.83;10.82;;;8.90;99.90;;;;;;5071018;28;20455;-56
2021/11/15 06:41:36;;;;;;;16.42;10.80;;;8.80;99.90;;;;;;5071515;28;20030;-56
2021/11/15 06:44:03;;;;;;;17.98;10.90;;;8.80;99.90;;;;;;5070570;28;20040;-57
2021/11/15 06:46:29;;;;;;;18.38;11.50;;;8.80;99.90;;;;;;5070829;28;20068;-55
2021/11/15 06:48:55;;;;;;;23.73;13.45;;;8.80;99.90;;;;;;5070812;28;20110;-56
2021/11/15 06:51:21;;;;;;;14.88;10.25;;;8.90;99.90;;;;;;5069971;28;20032;-56
2021/11/15 06:53:47;;;;;;;22.20;11.60;;;8.90;99.90;;;;;;5070683;28;20048;-57
2021/11/15 06:56:12;;;;;;;18.58;11.32;;;8.90;99.90;;;;;;5052444;28;20036;-56
2021/11/15 06:58:38;;;;;;;17.90;10.48;;;8.90;99.90;;;;;;5053141;28;20024;-56
2021/11/15 07:01:05;;;;;;;16.90;10.80;;;8.90;99.90;;;;;;5070237;28;20028;-58
2021/11/15 07:03:31;;;;;;;17.33;10.60;;;9.00;99.90;;;;;;5052736;28;20381;-56
2021/11/15 07:05:56;;;;;;;18.83;11.10;;;9.00;99.90;;;;;;5053053;28;20029;-56
2021/11/15 07:08:22;;;;;;;18.70;10.10;;;8.90;99.90;;;;;;5051993;28;20028;-56
2021/11/15 07:10:48;;;;;;;17.58;11.27;;;8.90;99.90;;;;;;5052636;28;20350;-57
2021/11/15 07:13:15;;;;;;;21.23;10.82;;;8.90;99.90;;;;;;5070485;28;20033;-57
2021/11/15 07:15:42;;;;;;;17.02;9.52;;;8.90;99.90;;;;;;5070845;28;20029;-57
2021/11/15 07:18:07;;;;;;;15.93;10.18;;;8.90;99.90;;;;;;5051958;28;20056;-56
2021/11/15 07:20:33;;;;;;;21.15;10.95;;;8.90;99.90;;;;;;5071121;28;20368;-57
2021/11/15 07:22:59;;;;;;;17.30;9.77;;;8.90;99.90;;;;;;5070552;28;20029;-56
2021/11/15 07:25:24;;;;;;;23.27;10.73;;;8.90;99.90;;;;;;5052021;28;20025;-56
2021/11/15 07:27:52;;;;;;;19.02;10.20;;;8.90;99.90;;;;;;5052761;28;20451;-57
2021/11/15 07:30:18;;;;;;;19.25;9.52;;;8.90;99.90;;;;;;5069901;28;20081;-56
2021/11/15 07:32:45;;;;;;;18.02;10.55;;;8.80;99.90;;;;;;5070186;28;20174;-56
2021/11/15 07:35:11;;;;;;;16.42;9.30;;;8.80;99.90;;;;;;5070122;28;20491;-57
2021/11/15 07:37:37;;;;;;;16.95;10.05;;;8.80;99.90;;;;;;5070482;28;20027;-56
2021/11/15 07:40:06;;;;;;;15.50;9.98;;;8.90;99.90;;;;;;5070428;28;20387;-68
2021/11/15 07:42:31;;;;;;;18.40;9.50;;;8.90;99.90;;;;;;5070657;28;20036;-57
2021/11/15 07:44:57;;;;;;;19.05;9.70;;;8.90;99.90;;;;;;5052409;28;20032;-56
2021/11/15 07:47:23;;;;;;;17.15;9.55;;;8.80;99.90;;;;;;5070279;28;20205;-57
2021/11/15 07:49:48;;;;;;;16.25;9.68;;;8.90;99.90;;;;;;5070518;28;20032;-57
2021/11/15 07:52:17;;;;;;;15.77;10.13;;;8.90;99.90;;;;;;5069911;28;20035;-57
2021/11/15 07:54:45;;;;;;;17.83;10.35;;;8.90;99.90;;;;;;5052779;28;20025;-56
2021/11/15 07:57:11;;;;;;;18.67;11.82;;;8.80;99.90;;;;;;5070272;28;20024;-57
2021/11/15 07:59:38;;;;;;;20.60;9.00;;;8.80;99.90;;;;;;5052623;28;20108;-56
2021/11/15 08:02:05;;;;;;;13.75;9.00;;;8.90;99.90;;;;;;5052305;28;20086;-56
2021/11/15 08:04:31;;;;;;;17.35;10.10;;;8.90;99.90;;;;;;5052202;28;20470;-56
2021/11/15 08:06:57;;;;;;;16.77;9.18;;;8.90;99.90;;;;;;5071524;28;20044;-57
2021/11/15 08:09:23;;;;;;;15.77;8.80;;;8.90;99.90;;;;;;5088834;28;20028;-56
2021/11/15 08:11:52;;;;;;;14.50;8.55;;;8.90;99.90;;;;;;5064014;28;20160;-57
2021/11/15 08:14:18;;;;;;;14.43;9.00;;;8.90;99.90;;;;;;5034944;28;20029;-59
2021/11/15 08:16:46;;;;;;;11.35;8.10;;;9.50;99.90;;;;;;5061285;28;20081;-57
2021/11/15 08:19:14;;;;;;;15.40;8.48;;;9.50;99.90;;;;;;5072002;28;20028;-57
2021/11/15 08:21:40;;;;;;;11.85;8.30;;;9.20;99.90;;;;;;5090795;28;20046;-57
2021/11/15 08:24:18;;;;;;;13.35;7.60;;;9.10;99.90;;;;;;5090147;28;20024;-65
2021/11/15 08:26:52;;;;;;;14.50;8.25;;;9.10;99.90;;;;;;5072165;28;20116;-57
2021/11/15 08:29:19;;;;;;;21.75;8.32;;;9.10;99.90;;;;;;5089890;28;20059;-57
2021/11/15 08:31:46;;;;;;;17.38;8.93;;;9.10;99.90;;;;;;5090555;28;20029;-57
2021/11/15 08:34:13;;;;;;;12.70;7.55;;;9.10;99.90;;;;;;5071440;28;20032;-57
2021/11/15 08:36:40;;;;;;;12.95;8.57;;;9.00;99.90;;;;;;5072547;28;20039;-56
2021/11/15 08:39:11;;;;;;;11.95;7.70;;;9.10;99.90;;;;;;5089950;28;20077;-56
2021/11/15 08:41:39;;;;;;;10.80;7.07;;;9.00;99.90;;;;;;5070454;28;20176;-56
2021/11/15 08:44:08;;;;;;;19.35;8.13;;;9.10;99.90;;;;;;5051321;28;20029;-56
2021/11/15 08:46:34;;;;;;;10.95;7.70;;;9.00;99.90;;;;;;5070131;28;20086;-57
2021/11/15 08:49:06;;;;;;;12.32;7.03;;;9.00;99.90;;;;;;5070532;28;20082;-64
2021/11/15 08:51:32;;;;;;;;;;;9.10;99.90;;;;;;5092525;28;20062;-57
2021/11/15 08:53:59;;;;;;;10.20;6.38;;;9.10;99.90;;;;;;5075900;28;20345;-57
2021/11/15 08:56:25;;;;;;;13.15;7.82;;;9.00;99.90;;;;;;5074573;28;20024;-56
2021/11/15 08:58:51;;;;;;;10.93;7.28;;;9.00;99.90;;;;;;5052496;28;20116;-56
2021/11/15 09:01:17;;;;;;;9.77;7.50;;;9.00;99.90;;;;;;5073003;28;20465;-56
2021/11/15 09:03:44;;;;;;;12.40;7.07;;;9.10;99.90;;;;;;5055135;28;20091;-57
2021/11/15 09:06:12;;;;;;;114.90;37.50;;;9.20;99.90;;;;;;5053905;28;20109;-58
2021/11/15 09:08:40;;;;;;;16.02;7.82;;;9.30;99.90;;;;;;5072994;28;20408;-57
2021/11/15 09:11:06;;;;;;;11.70;7.60;;;9.10;99.90;;;;;;5055372;28;20056;-56
2021/11/15 09:13:32;;;;;;;16.27;6.90;;;9.10;99.90;;;;;;5054741;28;20032;-56
2021/11/15 09:15:58;;;;;;;20.38;7.57;;;9.20;99.90;;;;;;5055617;28;20033;-56
2021/11/15 09:18:24;;;;;;;10.27;7.25;;;9.10;99.90;;;;;;5051402;28;20136;-56
2021/11/15 09:20:50;;;;;;;18.00;7.82;;;9.20;99.90;;;;;;5054691;28;20086;-56
2021/11/15 09:23:16;;;;;;;12.55;7.22;;;9.40;99.90;;;;;;5034734;28;20348;-56
2021/11/15 09:25:41;;;;;;;13.48;6.57;;;9.30;99.90;;;;;;5065673;28;20538;-57
2021/11/15 09:28:09;;;;;;;30.75;10.77;;;9.20;99.90;;;;;;5063936;28;20096;-58
2021/11/15 09:30:37;;;;;;;12.25;6.53;;;9.50;99.90;;;;;;5051277;28;20123;-58
2021/11/15 09:33:03;;;;;;;12.27;6.43;;;10.10;99.90;;;;;;5060329;28;20036;-56
2021/11/15 09:35:29;;;;;;;9.90;6.80;;;9.90;99.90;;;;;;5064756;28;20059;-57
2021/11/15 09:37:54;;;;;;;11.82;6.13;;;9.50;99.90;;;;;;5062791;28;20064;-56
2021/11/15 09:40:20;;;;;;;12.13;6.70;;;9.40;99.90;;;;;;5060596;28;20141;-56
2021/11/15 09:42:47;;;;;;;12.45;6.18;;;9.40;99.90;;;;;;5068918;28;20063;-56
2021/11/15 09:45:13;;;;;;;11.95;5.25;;;9.40;99.90;;;;;;5054230;28;20090;-57
2021/11/15 09:47:40;;;;;;;13.05;6.32;;;9.30;99.90;;;;;;5052546;28;20076;-57
2021/11/15 09:50:08;;;;;;;12.32;6.32;;;9.30;99.90;;;;;;5060597;28;20032;-56
2021/11/15 09:52:35;;;;;;;34.58;16.70;;;9.20;99.90;;;;;;5052701;28;20029;-57
2021/11/15 09:55:04;;;;;;;14.43;6.95;;;9.60;99.90;;;;;;5052627;28;20043;-57
2021/11/15 09:57:33;;;;;;;15.77;7.28;;;9.40;99.90;;;;;;5034153;28;20021;-57
2021/11/15 09:59:58;;;;;;;13.40;6.05;;;9.30;99.90;;;;;;5052419;28;20074;-57
2021/11/15 10:02:25;;;;;;;10.38;6.22;;;9.30;99.90;;;;;;5033964;28;20405;-56
2021/11/15 10:04:51;;;;;;;11.60;5.18;;;9.20;99.90;;;;;;5034145;28;20041;-56
2021/11/15 10:07:35;;;;;;;14.05;6.20;;;9.10;99.90;;;;;;5052025;28;20067;-56
2021/11/15 10:10:28;;;;;;;16.27;5.43;;;9.20;99.90;;;;;;5052540;28;20040;-57
2021/11/15 10:13:31;;;;;;;13.27;5.82;;;9.20;99.90;;;;;;5034178;28;20025;-56
2021/11/15 10:16:14;;;;;;;10.50;6.40;;;9.30;99.90;;;;;;5034173;28;20024;-56
2021/11/15 10:19:02;;;;;;;12.98;6.63;;;9.30;99.90;;;;;;5072323;28;20135;-56
2021/11/15 10:21:42;;;;;;;16.23;5.47;;;9.30;99.90;;;;;;5071664;28;20402;-57
2021/11/15 10:24:24;;;;;;;10.32;5.82;;;9.30;99.90;;;;;;5072094;28;20422;-56
2021/11/15 10:27:08;;;;;;;21.98;6.13;;;9.30;99.90;;;;;;5071845;28;20085;-56
2021/11/15 10:29:37;;;;;;;21.88;5.78;;;9.30;99.90;;;;;;5053315;28;20433;-57
2021/11/15 10:32:07;;;;;;;10.18;5.75;;;9.40;99.90;;;;;;5054015;28;20032;-57
2021/11/15 10:34:42;;;;;;;14.70;6.38;;;9.30;99.90;;;;;;5071143;28;20261;-56
2021/11/15 10:37:18;;;;;;;12.30;5.35;;;9.40;99.90;;;;;;5053469;28;20055;-56
2021/11/15 10:39:51;;;;;;;14.65;5.30;;;9.30;99.90;;;;;;5071554;28;20107;-57
2021/11/15 10:42:25;;;;;;;9.57;5.75;;;9.20;99.90;;;;;;5070958;28;20033;-57
2021/11/15 10:44:59;;;;;;;14.88;6.97;;;9.30;99.90;;;;;;5053511;28;20042;-57
2021/11/15 10:47:33;;;;;;;12.50;6.00;;;9.30;99.90;;;;;;5071244;28;20461;-56
2021/11/15 10:50:06;;;;;;;13.05;5.95;;;9.30;99.90;;;;;;5053388;28;20438;-57
2021/11/15 10:52:37;;;;;;;8.85;5.30;;;9.30;99.90;;;;;;5070467;28;20470;-57
2021/11/15 10:55:07;;;;;;;9.03;5.30;;;9.30;99.90;;;;;;5053245;28;20043;-56
2021/11/15 10:57:51;;;;;;;13.35;5.38;;;9.30;99.90;;;;;;5070616;28;20259;-57
2021/11/15 11:00:25;;;;;;;18.88;5.70;;;9.40;99.90;;;;;;5070810;28;20058;-59
2021/11/15 11:03:02;;;;;;;10.43;5.70;;;9.40;99.90;;;;;;5071451;28;20468;-57
2021/11/15 11:05:28;;;;;;;9.27;5.78;;;9.40;99.90;;;;;;5070593;28;20474;-56
2021/11/15 11:08:16;;;;;;;14.35;5.63;;;9.50;99.90;;;;;;5036403;28;20036;-57
2021/11/15 11:11:04;;;;;;;12.90;5.63;;;9.40;99.90;;;;;;5075996;28;20032;-57
2021/11/15 11:14:04;;;;;;;9.80;4.72;;;9.40;99.90;;;;;;5059978;28;20036;-57
2021/11/15 11:16:47;;;;;;;9.07;5.10;;;9.40;99.90;;;;;;5071528;28;20024;-57
2021/11/15 11:19:43;;;;;;;8.20;4.95;;;9.40;99.90;;;;;;5088562;28;20032;-56
2021/11/15 11:27:31;;;;;;;6.55;4.85;;;9.40;99.90;;;;;;5070376;28;20032;-57
2021/11/15 11:29:58;;;;;;;9.43;5.28;;;9.40;99.90;;;;;;5075137;28;20038;-57
2021/11/15 11:32:27;;;;;;;9.45;5.13;;;9.30;99.90;;;;;;5073399;28;20112;-57
2021/11/15 11:34:56;;;;;;;12.85;5.85;;;9.30;99.90;;;;;;5052778;28;20032;-57
2021/11/15 11:37:25;;;;;;;9.35;4.97;;;9.30;99.90;;;;;;5065140;28;20058;-58
2021/11/15 11:39:51;;;;;;;9.38;5.10;;;9.30;99.90;;;;;;5080370;28;20066;-56
2021/11/15 11:42:19;;;;;;;7.97;5.18;;;9.30;99.90;;;;;;5079018;28;20020;-68
2021/11/15 11:44:46;;;;;;;8.82;4.45;;;9.20;99.90;;;;;;5073009;28;20380;-57
2021/11/15 11:47:14;;;;;;;14.63;5.00;;;9.20;99.90;;;;;;5090625;28;20111;-56
2021/11/15 11:49:42;;;;;;;6.82;4.65;;;9.40;99.90;;;;;;5089960;28;20392;-56
2021/11/15 11:52:11;;;;;;;11.55;5.57;;;9.40;99.90;;;;;;5090950;28;20074;-58
2021/11/15 11:54:46;;;;;;;7.13;4.63;;;9.40;99.90;;;;;;5088572;28;20135;-56
2021/11/15 11:57:29;;;;;;;12.93;6.07;;;9.40;99.90;;;;;;5084624;28;20386;-57
2021/11/15 11:59:55;;;;;;;7.55;5.22;;;9.50;99.90;;;;;;5078679;28;20519;-56
2021/11/15 12:02:24;;;;;;;9.63;5.55;;;9.50;99.90;;;;;;5052038;28;20028;-56
2021/11/15 12:04:54;;;;;;;12.15;5.82;;;9.40;99.90;;;;;;5054538;28;20032;-56
2021/11/15 12:07:23;;;;;;;8.52;4.85;;;9.40;99.90;;;;;;5084491;28;20024;-60
2021/11/15 12:09:49;;;;;;;18.05;5.53;;;9.40;99.90;;;;;;5070614;28;20397;-57
2021/11/15 12:12:14;;;;;;;8.77;5.35;;;9.40;99.90;;;;;;5090318;28;20020;-57
2021/11/15 12:14:42;;;;;;;9.27;5.40;;;9.40;99.90;;;;;;5082162;28;20109;-57
2021/11/15 12:17:07;;;;;;;13.15;5.18;;;9.40;99.90;;;;;;5076360;28;20041;-56
2021/11/15 12:19:48;;;;;;;12.13;5.60;;;9.40;99.90;;;;;;5088239;28;20094;-58
2021/11/15 12:22:16;;;;;;;8.43;5.45;;;9.40;99.90;;;;;;5082096;28;20020;-57
2021/11/15 12:25:07;;;;;;;10.15;4.75;;;9.30;99.90;;;;;;5063036;28;20129;-58
2021/11/15 12:27:51;;;;;;;8.77;5.90;;;9.30;99.90;;;;;;5077228;28;20189;-56
2021/11/15 12:30:32;;;;;;;10.13;5.43;;;9.30;99.90;;;;;;5078025;28;20021;-58
2021/11/15 12:33:16;;;;;;;10.43;5.30;;;9.30;99.90;;;;;;5087240;28;20032;-57
2021/11/15 12:36:10;;;;;;;10.40;5.63;;;9.30;99.90;;;;;;5078238;28;20020;-56
2021/11/15 12:38:40;;;;;;;14.02;5.70;;;9.20;99.90;;;;;;5073457;28;20020;-56
2021/11/15 12:41:18;;;;;;;6.85;5.25;;;9.30;99.90;;;;;;5077851;28;20024;-57
2021/11/15 12:44:09;;;;;;;9.57;5.57;;;9.30;99.90;;;;;;5081379;28;20506;-57
2021/11/15 12:46:44;;;;;;;9.43;4.10;;;9.40;99.90;;;;;;5073627;28;20033;-57
2021/11/15 12:49:19;;;;;;;9.88;4.75;;;9.40;99.90;;;;;;5075565;28;20086;-57
2021/11/15 12:52:10;;;;;;;9.18;4.18;;;9.40;99.90;;;;;;5071722;28;20130;-56
2021/11/15 12:54:51;;;;;;;7.45;4.72;;;9.40;99.90;;;;;;5072557;28;20058;-56